This is the latest recevied weather packets stored in our database for station/object N0TKN. If no packets are shown the sender has not sent any weather packets the latest 10 day(s).
| Time | Temp. | Humidity | Pressure | Rain* | Wind** | Luminosity | Snow |
|---|---|---|---|---|---|---|---|
| 1778022918 | 7.22° C | 99% | 1011 hPa | 0.25 mm | - | 33 W/m² | - |
| 1778022318 | 7.22° C | 99% | 1011.1 hPa | 0.51 mm | - | 31 W/m² | - |
| 1778021718 | 7.22° C | 98% | 1011.4 hPa | 0.25 mm | - | 46 W/m² | - |
| 1778021118 | 7.22° C | 98% | 1011.8 hPa | 0.25 mm | - | 33 W/m² | - |
| 1778020518 | 7.22° C | 98% | 1011.3 hPa | 0.51 mm | - | 52 W/m² | - |
| 1778019918 | 7.22° C | 98% | 1011.4 hPa | 1.52 mm | - | 48 W/m² | - |
| 1778019319 | 7.22° C | 98% | 1011.6 hPa | 2.29 mm | - | 54 W/m² | - |
| 1778018715 | 7.22° C | 99% | 1011.3 hPa | 2.54 mm | - | 51 W/m² | - |
| 1778018116 | 7.78° C | 99% | 1010.5 hPa | 3.05 mm | - | 130 W/m² | - |
| 1778017516 | 7.78° C | 99% | 1011 hPa | 3.05 mm | - | 74 W/m² | - |
| 1778016916 | 7.22° C | 98% | 1010.7 hPa | 3.05 mm | - | 86 W/m² | - |
| 1778016316 | 7.78° C | 97% | 1010.7 hPa | 2.03 mm | - | 46 W/m² | - |
| 1778015716 | 7.78° C | 96% | 1010.7 hPa | 1.52 mm | - | 55 W/m² | - |
| 1778015116 | 7.78° C | 95% | 1010.6 hPa | 1.02 mm | - | 84 W/m² | - |
| 1778014517 | 8.33° C | 94% | 1011 hPa | 1.02 mm | - | 57 W/m² | - |
| 1778013917 | 8.33° C | 93% | 1010.7 hPa | 0.76 mm | - | 67 W/m² | - |
| 1778013317 | 8.33° C | 94% | 1010.8 hPa | 0.76 mm | - | 90 W/m² | - |
| 1778012717 | 8.33° C | 94% | 1011 hPa | 0.25 mm | - | 79 W/m² | - |
| 1778012117 | 8.33° C | 94% | 1011.1 hPa | 0.25 mm | - | 69 W/m² | - |
| 1778011517 | 8.33° C | 92% | 1011.2 hPa | 0.76 mm | - | 106 W/m² | - |
| 1778010918 | 8.89° C | 93% | 1011.2 hPa | 0.25 mm | - | 92 W/m² | - |
| 1778010317 | 8.89° C | 95% | 1010.7 hPa | 0.51 mm | - | 101 W/m² | - |
| 1778009718 | 8.89° C | 96% | 1011.1 hPa | 0.76 mm | - | 110 W/m² | - |
| 1778009118 | 8.89° C | 96% | 1011.3 hPa | 1.02 mm | - | 91 W/m² | - |
| 1778008519 | 8.89° C | 96% | 1010.9 hPa | 1.27 mm | - | 195 W/m² | - |
* Rain latest hour (hover to see other rain measurements)
** Current wind speed in m/s (hover to see current wind gust speed)